Weather at Lynden Pindling International Airport

Public forecast

Using degrees Celsius for public forecast. Weather courtesy of forecast.io.

Current aviation weather report (METAR) for Lynden Pindling International Airport

2024/06/18 17:00 (retrieved 50 minutes ago)

MYNN 181700Z 11010KT 9999 BKN025 30/23 A2996

Aviation forecast (TAF) for Lynden Pindling International Airport

2024/06/18 12:55 (retrieved 5 hours ago)

TAF MYNN 181100Z 1812/1912 08012KT 9999 SCT025 SCT045